Alpine, Texas
Current Conditions -  °F | °C
As of 11:55 PM on Thursday 27 Nov 2014 (Local Time) from KE38 Reporting Station
Clear Clear  
Wind Chill: 34°   Ceiling: Unl
Heat Index: 39°   Visibility: 10mi
Dew Point: 24°   Wind: 7mph
Humidity: 54%   Direction: 230°SW
Pressure: 30.39"   Gusts: NA
Location:  30.36°N, 103.66°W
Report Text: KE38 280555Z AUTO 23006KT 10SM CLR 04/M04 A3039 RMK AO2 T00411045 10122 20033 402061002
Loading
Personal Weather Stations






























Interactive Weather Map New forecast layout! Learn more

10-Day Weather Forecast

Advertisements
Track Severe Weather on mobile